createdAt,value
2023-05-01T00:02:36.011Z,100218.94
2023-05-01T00:06:48.519Z,100212.91
2023-05-01T00:11:05.101Z,100225.38
2023-05-01T00:15:17.491Z,100212.81
2023-05-01T00:19:29.903Z,100218.31
2023-05-01T00:23:42.268Z,100212.53
2023-05-01T00:27:55.950Z,100210.84
2023-05-01T00:32:08.400Z,100204.78
2023-05-01T00:36:21.340Z,100211.19
2023-05-01T00:40:33.711Z,100206.69
2023-05-01T00:44:46.458Z,100209.50
2023-05-01T00:48:59.092Z,100216.94
2023-05-01T00:53:12.692Z,100218.13
2023-05-01T00:57:25.497Z,100217.31
2023-05-01T01:01:38.348Z,100216.50
2023-05-01T01:06:28.891Z,100219.06
2023-05-01T01:10:57.446Z,100217.25
2023-05-01T01:15:38.245Z,100219.84
2023-05-01T01:20:31.878Z,100212.81
2023-05-01T01:24:59.714Z,100217.09
2023-05-01T01:29:28.240Z,100210.94
2023-05-01T01:33:49.640Z,100217.09
2023-05-01T01:38:22.930Z,100209.88
2023-05-01T01:42:49.854Z,100209.81
2023-05-01T01:47:07.519Z,100206.94
2023-05-01T01:51:22.636Z,100202.47
2023-05-01T01:55:37.204Z,100203.38
2023-05-01T01:59:51.555Z,100193.69
2023-05-01T02:04:06.392Z,100194.81
2023-05-01T02:08:21.600Z,100194.28
2023-05-01T02:12:34.632Z,100187.28
2023-05-01T02:16:47.691Z,100193.53
2023-05-01T02:21:01.328Z,100191.69
2023-05-01T02:25:15.797Z,100190.44
2023-05-01T02:29:28.431Z,100186.91
2023-05-01T02:33:41.548Z,100185.41
2023-05-01T02:37:54.342Z,100192.78
2023-05-01T02:42:10.887Z,100188.59
2023-05-01T02:46:26.154Z,100195.75
2023-05-01T02:50:43.009Z,100191.34
2023-05-01T02:54:57.513Z,100193.19
2023-05-01T02:59:09.958Z,100185.25
2023-05-01T03:03:22.379Z,100189.84
2023-05-01T03:07:35.581Z,100193.31
2023-05-01T03:11:48.248Z,100188.81
2023-05-01T03:16:00.945Z,100190.81
2023-05-01T03:20:13.702Z,100185.56
2023-05-01T03:24:26.172Z,100195.41
2023-05-01T03:28:38.624Z,100200.78
2023-05-01T03:32:52.288Z,100198.06
2023-05-01T03:37:10.994Z,100201.13
2023-05-01T03:41:23.852Z,100202.13
2023-05-01T03:45:44.675Z,100193.97
2023-05-01T03:49:57.871Z,100206.63
2023-05-01T03:54:10.779Z,100208.41
2023-05-01T03:58:44.611Z,100211.00
2023-05-01T04:02:57.873Z,100206.44
2023-05-01T04:07:10.924Z,100207.13
2023-05-01T04:11:23.561Z,100214.09
2023-05-01T04:15:35.907Z,100224.47
2023-05-01T04:19:48.960Z,100222.41
2023-05-01T04:24:01.437Z,100218.59
2023-05-01T04:28:14.291Z,100210.88
2023-05-01T04:32:26.791Z,100213.97
2023-05-01T04:36:39.945Z,100215.47
2023-05-01T04:40:52.910Z,100210.16
2023-05-01T04:45:05.878Z,100209.16
2023-05-01T04:49:24.753Z,100222.19
2023-05-01T04:53:37.240Z,100226.41
2023-05-01T04:57:52.341Z,100237.47
2023-05-01T05:02:04.844Z,100244.91
2023-05-01T05:06:17.829Z,100236.97
2023-05-01T05:10:30.132Z,100241.09
2023-05-01T05:15:12.486Z,100242.06
2023-05-01T05:19:24.934Z,100242.16
2023-05-01T05:23:37.821Z,100242.41
2023-05-01T05:27:51.282Z,100240.81
2023-05-01T05:32:03.999Z,100243.06
2023-05-01T05:36:16.487Z,100245.41
2023-05-01T05:40:29.723Z,100254.25
2023-05-01T05:44:43.101Z,100250.13
2023-05-01T05:48:56.719Z,100251.16
2023-05-01T05:53:10.752Z,100244.84
2023-05-01T05:57:24.377Z,100252.50
2023-05-01T06:01:38.083Z,100247.09
2023-05-01T06:05:50.717Z,100253.69
2023-05-01T06:10:05.368Z,100259.81
2023-05-01T06:14:20.403Z,100272.91
2023-05-01T06:18:32.972Z,100269.16
2023-05-01T06:22:47.054Z,100263.22
2023-05-01T06:27:22.557Z,100272.53
2023-05-01T06:31:37.345Z,100282.88
2023-05-01T06:35:52.087Z,100275.44
2023-05-01T06:40:08.933Z,100269.25
2023-05-01T06:44:22.423Z,100268.97
2023-05-01T06:48:34.888Z,100264.38
2023-05-01T06:52:47.402Z,100273.13
2023-05-01T06:56:59.999Z,100273.97
2023-05-01T07:01:12.532Z,100274.34
2023-05-01T07:05:24.939Z,100267.59
2023-05-01T07:09:37.666Z,100268.88
2023-05-01T07:13:50.225Z,100266.81
2023-05-01T07:18:03.435Z,100271.75
2023-05-01T07:22:16.151Z,100273.59
2023-05-01T07:26:28.558Z,100280.03
2023-05-01T07:30:40.960Z,100275.44
2023-05-01T07:34:53.480Z,100282.28
2023-05-01T07:39:06.876Z,100280.38
2023-05-01T07:43:19.438Z,100284.59
2023-05-01T07:47:31.927Z,100283.25
2023-05-01T07:51:45.790Z,100284.47
2023-05-01T07:56:09.265Z,100279.53
2023-05-01T08:00:21.944Z,100283.00
2023-05-01T08:04:34.381Z,100282.44
2023-05-01T08:08:46.991Z,100296.66
2023-05-01T08:12:59.755Z,100292.47
2023-05-01T08:17:12.155Z,100296.56
2023-05-01T08:21:24.555Z,100298.81
2023-05-01T08:25:36.954Z,100292.09
2023-05-01T08:29:50.094Z,100291.84
2023-05-01T08:34:02.488Z,100291.03
2023-05-01T08:38:14.964Z,100295.25
2023-05-01T08:42:28.676Z,100294.63
2023-05-01T08:46:45.104Z,100295.22
2023-05-01T08:50:59.838Z,100289.81
2023-05-01T08:55:16.234Z,100301.28
2023-05-01T08:59:30.384Z,100294.44
2023-05-01T09:03:44.930Z,100296.44
2023-05-01T09:07:59.310Z,100299.44
2023-05-01T09:12:27.822Z,100294.34
2023-05-01T09:16:40.322Z,100287.81
2023-05-01T09:20:52.924Z,100294.06
2023-05-01T09:25:05.734Z,100301.59
2023-05-01T09:29:41.123Z,100292.13
2023-05-01T09:33:58.831Z,100298.38
2023-05-01T09:38:11.866Z,100283.09
2023-05-01T09:42:24.521Z,100290.50
2023-05-01T09:46:44.175Z,100296.56
2023-05-01T09:50:56.929Z,100294.41
2023-05-01T09:55:19.262Z,100298.31
2023-05-01T09:59:34.563Z,100307.69
2023-05-01T10:03:55.621Z,100295.16
2023-05-01T10:08:10.608Z,100302.88
2023-05-01T10:12:28.299Z,100296.63
2023-05-01T10:16:40.720Z,100300.09
2023-05-01T10:20:53.360Z,100304.00
2023-05-01T10:25:12.329Z,100301.09
2023-05-01T10:29:28.251Z,100297.09
2023-05-01T10:33:42.579Z,100292.25
2023-05-01T10:38:00.213Z,100292.09
2023-05-01T10:42:15.105Z,100291.31
2023-05-01T10:46:28.462Z,100296.28
2023-05-01T10:51:18.262Z,100292.25
2023-05-01T10:55:37.415Z,100289.25
2023-05-01T11:00:02.294Z,100283.41
2023-05-01T11:04:20.842Z,100286.84
2023-05-01T11:08:35.097Z,100282.94
2023-05-01T11:12:47.677Z,100290.78
2023-05-01T11:17:00.050Z,100279.44
2023-05-01T11:21:12.567Z,100286.03
2023-05-01T11:25:31.174Z,100282.97
2023-05-01T11:29:45.750Z,100280.88
2023-05-01T11:34:01.946Z,100285.38
2023-05-01T11:38:19.075Z,100284.19
2023-05-01T11:42:31.454Z,100284.06
2023-05-01T11:46:44.355Z,100292.78
2023-05-01T11:50:56.833Z,100284.19
2023-05-01T11:55:10.774Z,100283.22
2023-05-01T11:59:23.298Z,100279.06
2023-05-01T12:03:42.914Z,100281.09
2023-05-01T12:08:16.066Z,100280.59
2023-05-01T12:12:28.655Z,100277.78
2023-05-01T12:16:41.453Z,100272.94
2023-05-01T12:20:55.533Z,100270.75
2023-05-01T12:25:08.680Z,100277.16
2023-05-01T12:29:21.161Z,100267.22
2023-05-01T12:33:33.608Z,100270.72
2023-05-01T12:37:47.171Z,100272.47
2023-05-01T12:42:00.138Z,100268.06
2023-05-01T12:46:16.071Z,100257.69
2023-05-01T12:50:28.530Z,100251.63
2023-05-01T12:54:45.070Z,100252.47
2023-05-01T12:58:58.151Z,100250.00
2023-05-01T13:03:10.905Z,100253.09
2023-05-01T13:07:23.387Z,100250.94
2023-05-01T13:11:36.335Z,100245.09
2023-05-01T13:15:48.817Z,100241.22
2023-05-01T13:20:04.309Z,100249.31
2023-05-01T13:24:16.853Z,100229.66
2023-05-01T13:28:29.399Z,100239.53
2023-05-01T13:32:42.616Z,100243.44
2023-05-01T13:36:59.086Z,100237.09
2023-05-01T13:41:15.873Z,100233.22
2023-05-01T13:45:28.277Z,100231.63
2023-05-01T13:49:42.502Z,100238.91
2023-05-01T13:53:56.573Z,100241.28
2023-05-01T13:58:09.202Z,100262.19
2023-05-01T14:02:27.540Z,100261.75
2023-05-01T14:06:47.192Z,100254.78
2023-05-01T14:10:59.760Z,100254.47
2023-05-01T14:15:13.575Z,100238.28
2023-05-01T14:19:26.011Z,100227.88
2023-05-01T14:23:42.391Z,100226.38
2023-05-01T14:27:56.418Z,100247.50
2023-05-01T14:32:09.875Z,100282.19
2023-05-01T14:36:22.800Z,100283.47
2023-05-01T14:40:35.548Z,100297.19
2023-05-01T14:44:47.989Z,100290.75
2023-05-01T14:49:01.853Z,100300.06
2023-05-01T14:53:14.465Z,100313.50
2023-05-01T14:57:29.135Z,100312.16
2023-05-01T15:01:41.716Z,100311.63
2023-05-01T15:05:54.610Z,100295.91
2023-05-01T15:10:07.192Z,100296.47
2023-05-01T15:14:19.735Z,100291.94
2023-05-01T15:18:32.140Z,100298.38
2023-05-01T15:22:45.679Z,100297.94
2023-05-01T15:26:59.093Z,100289.59
2023-05-01T15:31:11.812Z,100283.06
2023-05-01T15:35:24.462Z,100292.84
2023-05-01T15:39:37.220Z,100288.44
2023-05-01T15:43:49.749Z,100289.47
2023-05-01T15:48:03.186Z,100292.38
2023-05-01T15:52:15.685Z,100300.78
2023-05-01T15:56:28.518Z,100296.44
2023-05-01T16:00:41.032Z,100303.56
2023-05-01T16:04:54.328Z,100314.97
2023-05-01T16:09:06.892Z,100318.25
2023-05-01T16:13:19.295Z,100326.81
2023-05-01T16:17:45.184Z,100327.34
2023-05-01T16:21:57.879Z,100322.22
2023-05-01T16:26:10.608Z,100323.59
2023-05-01T16:30:25.946Z,100332.47
2023-05-01T16:34:40.309Z,100325.88
2023-05-01T16:38:55.601Z,100339.16
2023-05-01T16:43:08.014Z,100342.78
2023-05-01T16:47:20.403Z,100329.34
2023-05-01T16:51:33.027Z,100330.03
2023-05-01T16:55:45.419Z,100333.25
2023-05-01T16:59:58.026Z,100330.84
2023-05-01T17:04:10.973Z,100327.53
2023-05-01T17:08:23.439Z,100318.53
2023-05-01T17:12:35.999Z,100322.41
2023-05-01T17:16:50.400Z,100322.88
2023-05-01T17:21:03.032Z,100334.84
2023-05-01T17:25:15.495Z,100329.88
2023-05-01T17:29:28.301Z,100327.28
2023-05-01T17:33:40.714Z,100331.97
2023-05-01T17:37:53.318Z,100332.16
2023-05-01T17:42:05.790Z,100332.22
2023-05-01T17:46:18.657Z,100333.25
2023-05-01T17:50:31.102Z,100337.22
2023-05-01T17:54:43.624Z,100332.97
2023-05-01T17:58:56.159Z,100340.97
2023-05-01T18:03:09.447Z,100344.63
2023-05-01T18:07:22.384Z,100352.13
2023-05-01T18:11:35.099Z,100341.75
2023-05-01T18:15:49.385Z,100351.63
2023-05-01T18:20:03.129Z,100359.03
2023-05-01T18:24:15.599Z,100352.94
2023-05-01T18:28:28.685Z,100356.38
2023-05-01T18:32:48.371Z,100365.38
2023-05-01T18:37:01.547Z,100368.00
2023-05-01T18:41:13.986Z,100368.97
2023-05-01T18:45:26.520Z,100375.34
2023-05-01T18:49:38.981Z,100375.09
2023-05-01T18:53:51.364Z,100382.00
2023-05-01T18:58:03.877Z,100380.16
2023-05-01T19:02:16.594Z,100392.72
2023-05-01T19:06:29.487Z,100396.19
2023-05-01T19:10:42.762Z,100400.88
2023-05-01T19:14:55.084Z,100398.06
2023-05-01T19:19:07.458Z,100408.63
2023-05-01T19:23:19.953Z,100414.09
2023-05-01T19:27:32.335Z,100423.19
2023-05-01T19:31:44.825Z,100423.91
2023-05-01T19:35:57.230Z,100417.75
2023-05-01T19:40:10.685Z,100421.41
2023-05-01T19:44:23.130Z,100418.88
2023-05-01T19:48:35.612Z,100425.13
2023-05-01T19:52:48.061Z,100420.63
2023-05-01T19:57:00.430Z,100421.50
2023-05-01T20:01:13.565Z,100429.56
2023-05-01T20:05:28.533Z,100428.72
2023-05-01T20:09:41.072Z,100433.28
2023-05-01T20:13:53.600Z,100424.63
2023-05-01T20:18:17.038Z,100424.63
2023-05-01T20:22:29.502Z,100427.22
2023-05-01T20:26:41.929Z,100412.00
2023-05-01T20:30:54.482Z,100410.28
2023-05-01T20:35:07.283Z,100417.41
2023-05-01T20:39:19.673Z,100420.06
2023-05-01T20:43:32.120Z,100412.94
2023-05-01T20:47:44.580Z,100411.22
2023-05-01T20:51:58.865Z,100408.69
2023-05-01T20:56:11.618Z,100408.97
2023-05-01T21:00:24.066Z,100418.63
2023-05-01T21:04:38.262Z,100419.72
2023-05-01T21:08:51.443Z,100421.63
2023-05-01T21:13:03.939Z,100420.63
2023-05-01T21:17:18.539Z,100421.69
2023-05-01T21:21:31.228Z,100424.38
2023-05-01T21:25:44.153Z,100427.41
2023-05-01T21:30:01.264Z,100431.84
2023-05-01T21:34:17.784Z,100424.84
2023-05-01T21:38:31.484Z,100417.69
2023-05-01T21:42:43.851Z,100416.00
2023-05-01T21:46:58.473Z,100412.59
2023-05-01T21:51:10.874Z,100425.94
2023-05-01T21:55:26.262Z,100421.56
2023-05-01T21:59:39.600Z,100417.84
2023-05-01T22:03:52.067Z,100413.56
2023-05-01T22:08:04.722Z,100416.25
2023-05-01T22:12:17.144Z,100410.00
2023-05-01T22:16:29.644Z,100411.03
2023-05-01T22:20:42.120Z,100402.06
2023-05-01T22:24:54.483Z,100400.22
2023-05-01T22:29:07.075Z,100403.75
2023-05-01T22:33:19.663Z,100391.34
2023-05-01T22:37:32.089Z,100393.25
2023-05-01T22:41:44.594Z,100398.63
2023-05-01T22:45:57.246Z,100397.91
2023-05-01T22:50:10.422Z,100400.72
2023-05-01T22:54:22.841Z,100387.38
2023-05-01T22:58:35.321Z,100394.38
2023-05-01T23:02:47.767Z,100391.66
2023-05-01T23:07:00.174Z,100375.47
2023-05-01T23:11:18.346Z,100372.94
2023-05-01T23:15:31.724Z,100371.88
2023-05-01T23:19:45.923Z,100367.59
2023-05-01T23:23:58.472Z,100365.03
2023-05-01T23:28:12.341Z,100357.94
2023-05-01T23:32:28.197Z,100349.03
2023-05-01T23:36:44.043Z,100334.66
2023-05-01T23:40:56.631Z,100350.91
2023-05-01T23:45:09.887Z,100336.63
2023-05-01T23:49:22.314Z,100332.34
2023-05-01T23:53:34.729Z,100317.84
2023-05-01T23:57:47.227Z,100311.81
